createdAt,value
2017-06-26T00:00:38.622Z,99.05
2017-06-26T00:01:19.508Z,99.24
2017-06-26T00:02:00.419Z,99.15
2017-06-26T00:02:41.302Z,99.05
2017-06-26T00:03:22.210Z,99.24
2017-06-26T00:04:03.091Z,98.86
2017-06-26T00:04:43.975Z,98.96
2017-06-26T00:05:24.860Z,99.15
2017-06-26T00:06:05.738Z,98.19
2017-06-26T00:06:46.623Z,99.15
2017-06-26T00:07:27.514Z,99.15
2017-06-26T00:08:08.400Z,99.15
2017-06-26T00:08:49.285Z,98.77
2017-06-26T00:09:30.178Z,98.96
2017-06-26T00:10:11.059Z,99.15
2017-06-26T00:10:51.950Z,98.38
2017-06-26T00:11:32.841Z,98.48
2017-06-26T00:12:13.724Z,98.67
2017-06-26T00:12:54.610Z,98.67
2017-06-26T00:13:35.492Z,98.77
2017-06-26T00:14:16.374Z,98.67
2017-06-26T00:14:57.265Z,99.05
2017-06-26T00:15:38.170Z,99.01
2017-06-26T00:16:19.062Z,98.86
2017-06-26T00:16:59.957Z,99.15
2017-06-26T00:17:40.831Z,98.91
2017-06-26T00:18:21.712Z,98.67
2017-06-26T00:19:02.614Z,98.86
2017-06-26T00:19:43.499Z,98.19
2017-06-26T00:20:24.381Z,98.28
2017-06-26T00:21:05.266Z,98.57
2017-06-26T00:21:46.150Z,98.86
2017-06-26T00:22:27.040Z,98.86
2017-06-26T00:23:07.917Z,98.57
2017-06-26T00:23:48.801Z,98.77
2017-06-26T00:24:29.683Z,98.67
2017-06-26T00:25:10.578Z,99.34
2017-06-26T00:25:51.479Z,99.24
2017-06-26T00:26:32.381Z,98.96
2017-06-26T00:27:13.266Z,98.77
2017-06-26T00:27:54.153Z,98.96
2017-06-26T00:28:35.038Z,98.96
2017-06-26T00:29:15.924Z,98.77
2017-06-26T00:29:56.803Z,98.86
2017-06-26T00:30:37.690Z,98.86
2017-06-26T00:31:18.569Z,98.77
2017-06-26T00:31:59.462Z,99.1
2017-06-26T00:32:40.341Z,99.29
2017-06-26T00:33:21.251Z,99.39
2017-06-26T00:34:02.133Z,99.15
2017-06-26T00:34:43.010Z,98.77
2017-06-26T00:35:23.878Z,99.24
2017-06-26T00:36:04.785Z,99.24
2017-06-26T00:36:45.671Z,99.34
2017-06-26T00:37:26.547Z,98.48
2017-06-26T00:38:07.463Z,98.67
2017-06-26T00:38:48.345Z,98.48
2017-06-26T00:39:29.236Z,98.77
2017-06-26T00:40:10.140Z,98.77
2017-06-26T00:40:51.026Z,98.96
2017-06-26T00:41:31.895Z,98.86
2017-06-26T00:42:12.783Z,99.05
2017-06-26T00:42:53.670Z,98.77
2017-06-26T00:43:34.591Z,98.77
2017-06-26T00:44:15.482Z,99.34
2017-06-26T00:44:56.369Z,99.15
2017-06-26T00:45:37.254Z,98.77
2017-06-26T00:46:18.158Z,98.19
2017-06-26T00:46:59.048Z,99.15
2017-06-26T00:47:39.925Z,99.15
2017-06-26T00:48:20.808Z,98.86
2017-06-26T00:49:01.724Z,99.24
2017-06-26T00:49:42.622Z,98.96
2017-06-26T00:50:23.500Z,99.05
2017-06-26T00:51:04.384Z,98.96
2017-06-26T00:51:45.270Z,98.77
2017-06-26T00:52:26.150Z,99.05
2017-06-26T00:53:07.041Z,98.77
2017-06-26T00:53:47.944Z,98.77
2017-06-26T00:54:28.821Z,99.15
2017-06-26T00:55:09.698Z,99.15
2017-06-26T00:55:50.600Z,99.01
2017-06-26T00:56:31.461Z,99.2
2017-06-26T00:57:12.345Z,98.33
2017-06-26T00:57:53.225Z,98.62
2017-06-26T00:58:34.117Z,98.48
2017-06-26T00:59:15.011Z,98.19
2017-06-26T00:59:55.898Z,99.34
2017-06-26T01:00:36.778Z,98.28
2017-06-26T01:01:17.686Z,98.28
2017-06-26T01:01:58.550Z,98.57
2017-06-26T01:02:39.432Z,98.67
2017-06-26T01:03:20.319Z,98.86
2017-06-26T01:04:01.229Z,98.86
2017-06-26T01:04:42.115Z,98.77
2017-06-26T01:05:23.022Z,99.15
2017-06-26T01:06:03.899Z,99.15
2017-06-26T01:06:44.780Z,98.96
2017-06-26T01:07:25.678Z,98.57
2017-06-26T01:08:06.569Z,98.67
2017-06-26T01:08:47.466Z,99.05
2017-06-26T01:09:28.357Z,99.05
2017-06-26T01:10:09.249Z,99.05
2017-06-26T01:10:50.141Z,99.15
2017-06-26T01:11:31.048Z,99.05
2017-06-26T01:12:11.928Z,98.67
2017-06-26T01:12:52.818Z,98.96
2017-06-26T01:13:33.676Z,98.77
2017-06-26T01:14:14.584Z,98.77
2017-06-26T01:14:55.488Z,99.24
2017-06-26T01:16:23.585Z,98.96
2017-06-26T01:17:04.484Z,99.05
2017-06-26T01:17:45.355Z,99.01
2017-06-26T01:18:26.255Z,99.05
2017-06-26T01:19:07.139Z,99.15
2017-06-26T01:19:48.046Z,99.15
2017-06-26T01:20:28.936Z,99.15
2017-06-26T01:21:09.817Z,99.34
2017-06-26T01:21:50.694Z,99.15
2017-06-26T01:22:31.583Z,98.57
2017-06-26T01:23:12.468Z,98.77
2017-06-26T01:23:53.350Z,98.57
2017-06-26T01:24:34.234Z,98.28
2017-06-26T01:25:15.114Z,98.72
2017-06-26T01:25:56.005Z,98.62
2017-06-26T01:26:36.937Z,98.33
2017-06-26T01:27:17.800Z,98.91
2017-06-26T01:27:58.707Z,98.62
2017-06-26T01:28:39.587Z,98.91
2017-06-26T01:29:20.470Z,98.52
2017-06-26T01:30:01.379Z,98.72
2017-06-26T01:30:42.242Z,98.62
2017-06-26T01:31:23.139Z,99.1
2017-06-26T01:32:04.037Z,99.1
2017-06-26T01:32:44.912Z,98.81
2017-06-26T01:33:25.798Z,99.48
2017-06-26T01:34:06.686Z,98.81
2017-06-26T01:34:47.576Z,98.86
2017-06-26T01:35:28.465Z,99.34
2017-06-26T01:36:09.351Z,99.43
2017-06-26T01:36:50.235Z,99.53
2017-06-26T01:37:31.124Z,98.67
2017-06-26T01:38:12.017Z,99.34
2017-06-26T01:38:52.898Z,99.43
2017-06-26T01:39:33.784Z,99.53
2017-06-26T01:40:14.668Z,99.53
2017-06-26T01:40:55.564Z,99.15
2017-06-26T01:41:36.441Z,99.15
2017-06-26T01:42:17.325Z,99.63
2017-06-26T01:42:58.210Z,99.15
2017-06-26T01:43:39.087Z,99.43
2017-06-26T01:44:19.970Z,99.15
2017-06-26T01:45:00.855Z,99.05
2017-06-26T01:45:41.743Z,99.34
2017-06-26T01:46:22.629Z,99.05
2017-06-26T01:47:03.508Z,99.34
2017-06-26T01:47:44.398Z,99.24
2017-06-26T01:48:25.290Z,99.43
2017-06-26T01:49:06.206Z,99.15
2017-06-26T01:49:47.094Z,99.34
2017-06-26T01:50:27.977Z,99.05
2017-06-26T01:51:08.887Z,99.34
2017-06-26T01:51:49.766Z,99.24
2017-06-26T01:52:30.651Z,99.53
2017-06-26T01:53:11.541Z,99.34
2017-06-26T01:53:52.426Z,99.34
2017-06-26T01:54:33.308Z,99.05
2017-06-26T01:55:14.202Z,99.24
2017-06-26T01:55:55.089Z,98.67
2017-06-26T01:56:35.976Z,99.34
2017-06-26T01:57:16.868Z,99.24
2017-06-26T01:57:57.778Z,99.34
2017-06-26T01:58:38.663Z,99.53
2017-06-26T01:59:19.553Z,99.34
2017-06-26T02:00:00.440Z,99.24
2017-06-26T02:00:41.327Z,98.96
2017-06-26T02:01:22.218Z,99.53
2017-06-26T02:02:03.105Z,99.24
2017-06-26T02:02:43.993Z,99.53
2017-06-26T02:03:24.885Z,99.53
2017-06-26T02:04:05.776Z,99.43
2017-06-26T02:04:46.664Z,99.43
2017-06-26T02:05:27.558Z,99.43
2017-06-26T02:06:08.446Z,99.53
2017-06-26T02:06:49.336Z,98.67
2017-06-26T02:07:30.229Z,99.05
2017-06-26T02:08:11.123Z,99.24
2017-06-26T02:08:52.020Z,99.43
2017-06-26T02:09:32.909Z,99.34
2017-06-26T02:10:13.792Z,99.34
2017-06-26T02:10:54.672Z,98.86
2017-06-26T02:11:35.558Z,99.53
2017-06-26T02:12:16.450Z,99.24
2017-06-26T02:12:57.371Z,99.34
2017-06-26T02:13:38.280Z,99.43
2017-06-26T02:14:19.147Z,99.34
2017-06-26T02:15:00.042Z,99.53
2017-06-26T02:15:40.935Z,99.53
2017-06-26T02:16:21.824Z,99.34
2017-06-26T02:17:02.710Z,99.24
2017-06-26T02:17:43.627Z,99.15
2017-06-26T02:18:24.517Z,99.24
2017-06-26T02:19:05.414Z,99.01
2017-06-26T02:19:46.249Z,99.48
2017-06-26T02:20:27.144Z,99.24
2017-06-26T02:21:08.037Z,98.77
2017-06-26T02:21:48.916Z,99.99
2017-06-26T02:22:29.796Z,99.34
2017-06-26T02:23:10.681Z,98.77
2017-06-26T02:23:51.565Z,98.67
2017-06-26T02:24:32.459Z,98.57
2017-06-26T02:25:13.348Z,98.77
2017-06-26T02:25:54.240Z,98.86
2017-06-26T02:26:35.136Z,98.52
2017-06-26T02:27:16.004Z,98.38
2017-06-26T02:27:56.893Z,98.72
2017-06-26T02:28:37.775Z,99.15
2017-06-26T02:29:18.653Z,98.77
2017-06-26T02:29:59.529Z,98.57
2017-06-26T02:30:40.426Z,99.2
2017-06-26T02:31:21.310Z,98.19
2017-06-26T02:32:02.188Z,98.24
2017-06-26T02:32:43.066Z,98.91
2017-06-26T02:33:23.956Z,98.33
2017-06-26T02:34:04.843Z,98.82
2017-06-26T02:34:45.746Z,98.72
2017-06-26T02:35:26.617Z,98.19
2017-06-26T02:36:07.515Z,98.43
2017-06-26T02:36:48.397Z,98.62
2017-06-26T02:37:29.278Z,98.77
2017-06-26T02:38:10.167Z,98.82
2017-06-26T02:38:51.074Z,98.24
2017-06-26T02:39:31.929Z,98.24
2017-06-26T02:40:12.818Z,98.67
2017-06-26T02:40:53.702Z,98.43
2017-06-26T02:41:34.604Z,98.48
2017-06-26T02:42:15.491Z,98.28
2017-06-26T02:42:56.384Z,98.48
2017-06-26T02:43:37.268Z,98.28
2017-06-26T02:44:18.155Z,98.91
2017-06-26T02:44:59.029Z,98.86
2017-06-26T02:45:39.918Z,98.67
2017-06-26T02:46:20.806Z,98.48
2017-06-26T02:47:01.687Z,98.57
2017-06-26T02:47:42.564Z,98.38
2017-06-26T02:48:23.452Z,98.28
2017-06-26T02:49:04.343Z,98.28
2017-06-26T02:49:45.234Z,98.28
2017-06-26T02:50:26.129Z,98.57
2017-06-26T02:51:07.022Z,98.48
2017-06-26T02:51:47.898Z,98.48
2017-06-26T02:52:28.779Z,98.57
2017-06-26T02:53:09.681Z,98.48
2017-06-26T02:53:50.549Z,98.48
2017-06-26T02:54:31.425Z,99.34
2017-06-26T02:55:12.311Z,98.48
2017-06-26T02:55:53.200Z,98.77
2017-06-26T02:56:34.090Z,98.86
2017-06-26T02:57:14.967Z,98.77
2017-06-26T02:57:55.852Z,98.38
2017-06-26T02:58:36.766Z,98.86
2017-06-26T02:59:17.627Z,98.96
2017-06-26T02:59:58.515Z,99.2
2017-06-26T03:00:39.419Z,97.86
2017-06-26T03:01:20.301Z,98.53
2017-06-26T03:02:01.187Z,98.43
2017-06-26T03:02:42.082Z,98.53
2017-06-26T03:03:22.977Z,98.48
2017-06-26T03:04:03.874Z,98.48
2017-06-26T03:04:44.730Z,98.19
2017-06-26T03:05:25.644Z,98.67
2017-06-26T03:06:06.513Z,98.19
2017-06-26T03:06:47.391Z,98.19
2017-06-26T03:07:28.273Z,98.57
2017-06-26T03:08:09.163Z,98.77
2017-06-26T03:08:50.049Z,98.57
2017-06-26T03:09:30.929Z,98.57
2017-06-26T03:10:11.859Z,98.77
2017-06-26T03:10:52.742Z,98.67
2017-06-26T03:11:33.631Z,98.57
2017-06-26T03:12:14.524Z,98.48
2017-06-26T03:12:55.456Z,98.77
2017-06-26T03:13:36.359Z,98.57
2017-06-26T03:14:17.244Z,98.53
2017-06-26T03:14:58.129Z,97.9
2017-06-26T03:15:39.009Z,97.52
2017-06-26T03:16:19.892Z,98.48
2017-06-26T03:17:00.777Z,98.67
2017-06-26T03:17:41.667Z,98.48
2017-06-26T03:18:22.554Z,98.38
2017-06-26T03:19:03.432Z,98.62
2017-06-26T03:19:44.310Z,98.48
2017-06-26T03:20:25.195Z,98.57
2017-06-26T03:21:06.085Z,98.43
2017-06-26T03:21:46.965Z,98.24
2017-06-26T03:22:27.847Z,98.48
2017-06-26T03:23:08.735Z,98.19
2017-06-26T03:23:49.646Z,98.19
2017-06-26T03:24:30.509Z,98.86
2017-06-26T03:25:11.383Z,98.48
2017-06-26T03:25:52.262Z,98.38
2017-06-26T03:26:33.152Z,98.28
2017-06-26T03:27:14.033Z,98.43
2017-06-26T03:27:54.908Z,98.57
2017-06-26T03:28:35.798Z,98.28
2017-06-26T03:29:16.684Z,98.72
2017-06-26T03:29:57.577Z,98.62
2017-06-26T03:30:38.469Z,98.43
2017-06-26T03:31:19.359Z,97.81
2017-06-26T03:32:00.251Z,97.61
2017-06-26T03:32:41.133Z,98.38
2017-06-26T03:33:22.015Z,97.66
2017-06-26T03:34:02.905Z,98.43
2017-06-26T03:34:43.789Z,98.43
2017-06-26T03:35:24.684Z,98.19
2017-06-26T03:36:05.580Z,98
2017-06-26T03:36:46.459Z,97.33
2017-06-26T03:37:27.338Z,97.81
2017-06-26T03:38:08.218Z,97.81
2017-06-26T03:38:49.118Z,98.05
2017-06-26T03:39:29.993Z,98.38
2017-06-26T03:40:10.870Z,97.66
2017-06-26T03:40:51.756Z,97.66
2017-06-26T03:41:32.661Z,97.95
2017-06-26T03:42:13.546Z,97.66
2017-06-26T03:42:54.429Z,97.86
2017-06-26T03:43:35.323Z,97.56
2017-06-26T03:44:16.209Z,97.86
2017-06-26T03:44:57.102Z,97.86
2017-06-26T03:45:37.984Z,97.38
2017-06-26T03:46:18.875Z,97.76
2017-06-26T03:46:59.761Z,97.56
2017-06-26T03:47:40.658Z,97.86
2017-06-26T03:48:21.550Z,97.56
2017-06-26T03:49:02.432Z,97.95
2017-06-26T03:49:43.313Z,97.76
2017-06-26T03:50:24.216Z,97.47
2017-06-26T03:51:05.096Z,97.76
2017-06-26T03:51:45.976Z,97.66
2017-06-26T03:52:26.880Z,97.86
2017-06-26T03:53:07.775Z,97.86
2017-06-26T03:53:48.657Z,98.53
2017-06-26T03:54:29.546Z,97.76
2017-06-26T03:55:10.431Z,98.48
2017-06-26T03:55:51.312Z,98.38
2017-06-26T03:56:32.172Z,98.38
2017-06-26T03:57:13.076Z,98.05
2017-06-26T03:57:53.962Z,97.95
2017-06-26T03:58:34.843Z,97.86
2017-06-26T03:59:15.721Z,97.66
2017-06-26T03:59:56.606Z,98.05
2017-06-26T04:00:37.495Z,97.76
2017-06-26T04:01:18.378Z,98.14
2017-06-26T04:01:59.262Z,97.66
2017-06-26T04:02:40.134Z,97.76
2017-06-26T04:03:21.021Z,97.71
2017-06-26T04:04:01.915Z,97.76
2017-06-26T04:04:42.822Z,98.05
2017-06-26T04:05:23.706Z,97.66
2017-06-26T04:06:04.590Z,97.61
2017-06-26T04:06:45.468Z,97.47
2017-06-26T04:07:26.355Z,97.66
2017-06-26T04:08:07.245Z,97.66
2017-06-26T04:08:48.130Z,97.86
2017-06-26T04:09:29.019Z,98.53
2017-06-26T04:10:09.904Z,97.47
2017-06-26T04:10:50.771Z,97.56
2017-06-26T04:11:31.667Z,98.05
2017-06-26T04:12:12.551Z,97.76
2017-06-26T04:12:53.424Z,97.76
2017-06-26T04:13:34.333Z,97.47
2017-06-26T04:14:15.212Z,98.24
2017-06-26T04:14:56.159Z,98.43
2017-06-26T04:15:37.032Z,98.43
2017-06-26T04:16:17.929Z,98.53
2017-06-26T04:16:58.812Z,98.43
2017-06-26T04:17:39.699Z,97.95
2017-06-26T04:18:20.591Z,98.19
2017-06-26T04:19:01.482Z,97.86
2017-06-26T04:19:42.372Z,97.81
2017-06-26T04:20:23.258Z,97.71
2017-06-26T04:21:04.158Z,97.91
2017-06-26T04:21:45.054Z,98
2017-06-26T04:22:26.016Z,97.33
2017-06-26T04:23:06.909Z,97.91
2017-06-26T04:23:47.787Z,98.19
2017-06-26T04:24:28.687Z,97.04
2017-06-26T04:25:09.568Z,96.13
2017-06-26T04:25:50.504Z,96.03
2017-06-26T04:26:31.372Z,95.84
2017-06-26T04:27:12.242Z,96.42
2017-06-26T04:27:53.132Z,96.37
2017-06-26T04:28:34.007Z,96.94
2017-06-26T04:29:14.900Z,96.85
2017-06-26T04:29:55.772Z,97.61
2017-06-26T04:30:36.676Z,97.52
2017-06-26T04:31:17.578Z,97.24
2017-06-26T04:31:58.460Z,97.28
2017-06-26T04:32:39.364Z,97.81
2017-06-26T04:33:20.249Z,97.71
2017-06-26T04:34:01.131Z,98.19
2017-06-26T04:34:42.016Z,97.71
2017-06-26T04:35:22.896Z,97.91
2017-06-26T04:36:03.786Z,98.1
2017-06-26T04:37:57.409Z,98.38
2017-06-26T04:38:38.282Z,97.38
2017-06-26T04:39:19.165Z,97.61
2017-06-26T04:40:00.043Z,97.09
2017-06-26T04:40:40.931Z,97.76
2017-06-26T04:41:21.814Z,97.66
2017-06-26T04:42:02.699Z,97.52
2017-06-26T04:42:43.580Z,97.71
2017-06-26T04:43:24.482Z,97.61
2017-06-26T04:44:05.367Z,98
2017-06-26T04:44:46.246Z,98.19
2017-06-26T04:45:27.142Z,97.52
2017-06-26T04:46:08.031Z,97.71
2017-06-26T04:46:48.914Z,97.61
2017-06-26T04:47:29.816Z,98
2017-06-26T04:48:10.708Z,97.61
2017-06-26T04:48:51.603Z,97.61
2017-06-26T04:49:32.487Z,97.61
2017-06-26T04:50:13.387Z,97.56
2017-06-26T04:50:54.284Z,97.91
2017-06-26T04:51:35.168Z,97.86
2017-06-26T04:52:16.059Z,98.67
2017-06-26T04:52:56.958Z,98.72
2017-06-26T04:53:37.845Z,98.24
2017-06-26T04:54:18.727Z,98.43
2017-06-26T04:54:59.624Z,98.05
2017-06-26T04:55:40.513Z,98.53
2017-06-26T04:56:21.384Z,98.05
2017-06-26T04:57:02.296Z,98.43
2017-06-26T04:57:43.187Z,97.76
2017-06-26T04:58:24.055Z,98.82
2017-06-26T04:59:04.947Z,98.14
2017-06-26T04:59:45.839Z,98.53
2017-06-26T05:00:26.730Z,98.24
2017-06-26T05:01:07.617Z,98.43
2017-06-26T05:01:48.515Z,98.28
2017-06-26T05:02:29.404Z,98.19
2017-06-26T05:03:10.288Z,98.57
2017-06-26T05:03:51.185Z,98.57
2017-06-26T05:04:32.076Z,98.24
2017-06-26T05:05:12.973Z,98.57
2017-06-26T05:05:53.874Z,98.77
2017-06-26T05:06:34.754Z,98.57
2017-06-26T05:07:15.657Z,98.57
2017-06-26T05:07:56.548Z,98.38
2017-06-26T05:08:37.433Z,98.48
2017-06-26T05:09:18.313Z,98.57
2017-06-26T05:09:59.201Z,98.86
2017-06-26T05:10:40.093Z,98.57
2017-06-26T05:11:20.976Z,98.48
2017-06-26T05:12:01.867Z,98.1
2017-06-26T05:12:42.763Z,98.77
2017-06-26T05:13:23.638Z,98.57
2017-06-26T05:14:04.523Z,98.77
2017-06-26T05:14:45.409Z,98.19
2017-06-26T05:15:26.303Z,98.19
2017-06-26T05:16:07.197Z,98
2017-06-26T05:16:48.085Z,98.81
2017-06-26T05:17:28.982Z,98.67
2017-06-26T05:18:09.874Z,98.67
2017-06-26T05:18:50.743Z,98.77
2017-06-26T05:19:31.641Z,98.96
2017-06-26T05:20:12.524Z,98.86
2017-06-26T05:20:53.405Z,98.53
2017-06-26T05:21:34.293Z,98.53
2017-06-26T05:22:15.209Z,98.28
2017-06-26T05:22:56.115Z,98.77
2017-06-26T05:23:37.025Z,98.24
2017-06-26T05:24:17.890Z,98.82
2017-06-26T05:24:58.782Z,98.43
2017-06-26T05:25:39.669Z,98.43
2017-06-26T05:26:20.555Z,98.62
2017-06-26T05:27:01.437Z,98.43
2017-06-26T05:27:42.319Z,98.57
2017-06-26T05:28:23.215Z,98.62
2017-06-26T05:29:04.110Z,98.82
2017-06-26T05:29:44.999Z,98.72
2017-06-26T05:30:25.892Z,98.53
2017-06-26T05:31:06.783Z,98.62
2017-06-26T05:31:47.672Z,98.33
2017-06-26T05:32:28.560Z,98.53
2017-06-26T05:33:09.455Z,98.77
2017-06-26T05:33:50.341Z,98.57
2017-06-26T05:34:31.240Z,98.38
2017-06-26T05:35:12.136Z,98.82
2017-06-26T05:35:53.027Z,98.62
2017-06-26T05:36:33.927Z,98.72
2017-06-26T05:37:14.838Z,98.62
2017-06-26T05:37:55.727Z,98.91
2017-06-26T05:38:36.615Z,98.82
2017-06-26T05:39:17.508Z,98.33
2017-06-26T05:39:58.400Z,98.14
2017-06-26T05:40:39.304Z,98.33
2017-06-26T05:41:20.196Z,98.82
2017-06-26T05:42:01.087Z,98.14
2017-06-26T05:42:41.980Z,98.43
2017-06-26T05:43:22.867Z,98.33
2017-06-26T05:44:03.749Z,98.67
2017-06-26T05:44:44.633Z,98.53
2017-06-26T05:45:25.524Z,98.62
2017-06-26T05:46:06.425Z,98.33
2017-06-26T05:46:47.311Z,98.53
2017-06-26T05:47:28.189Z,98.53
2017-06-26T05:48:09.083Z,98.62
2017-06-26T05:48:49.974Z,98.62
2017-06-26T05:49:30.867Z,98.24
2017-06-26T05:50:11.749Z,98.53
2017-06-26T05:50:52.635Z,98.24
2017-06-26T05:51:33.524Z,98.91
2017-06-26T05:52:14.390Z,98.43
2017-06-26T05:52:55.278Z,98.43
2017-06-26T05:53:36.428Z,98.62
2017-06-26T05:54:17.337Z,98.77
2017-06-26T05:54:58.218Z,98.33
2017-06-26T05:55:39.102Z,98.33
2017-06-26T05:56:19.983Z,98.19
2017-06-26T05:57:00.882Z,98.19
2017-06-26T05:57:41.758Z,98.38
2017-06-26T05:58:22.655Z,98.38
2017-06-26T05:59:03.561Z,98.48
2017-06-26T05:59:44.427Z,98.96
2017-06-26T06:00:25.301Z,97.9
2017-06-26T06:01:06.188Z,98.19
2017-06-26T06:01:47.071Z,98.96
2017-06-26T06:02:27.956Z,98.81
2017-06-26T06:03:08.830Z,99.19
2017-06-26T06:03:49.718Z,98.86
2017-06-26T06:04:30.607Z,98.77
2017-06-26T06:05:11.493Z,98.91
2017-06-26T06:05:52.373Z,98.14
2017-06-26T06:06:33.300Z,98.81
2017-06-26T06:07:14.184Z,98.72
2017-06-26T06:07:55.073Z,98.81
2017-06-26T06:08:35.963Z,98.05
2017-06-26T06:09:16.858Z,98.14
2017-06-26T06:09:57.745Z,98.52
2017-06-26T06:10:38.634Z,97.95
2017-06-26T06:11:19.518Z,98.24
2017-06-26T06:12:00.412Z,98.38
2017-06-26T06:12:41.313Z,98.38
2017-06-26T06:13:22.204Z,98
2017-06-26T06:14:03.079Z,98.28
2017-06-26T06:14:43.975Z,98.1
2017-06-26T06:15:24.846Z,98.52
2017-06-26T06:16:05.724Z,98.33
2017-06-26T06:16:46.613Z,98.33
2017-06-26T06:17:27.519Z,98.43
2017-06-26T06:18:08.421Z,98.33
2017-06-26T06:18:49.307Z,98.33
2017-06-26T06:19:30.194Z,98.43
2017-06-26T06:20:11.082Z,98.43
2017-06-26T06:20:52.034Z,99.05
2017-06-26T06:21:32.917Z,98.28
2017-06-26T06:22:13.817Z,98.38
2017-06-26T06:22:54.709Z,99.1
2017-06-26T06:23:35.583Z,98.33
2017-06-26T06:24:16.475Z,98.71
2017-06-26T06:25:49.749Z,99.1
2017-06-26T06:26:30.609Z,99.29
2017-06-26T06:27:11.510Z,99.48
2017-06-26T06:27:52.406Z,99.58
2017-06-26T06:28:33.308Z,99
2017-06-26T06:29:14.202Z,98.57
2017-06-26T06:29:55.068Z,99.19
2017-06-26T06:30:35.948Z,99.1
2017-06-26T06:31:16.832Z,99.63
2017-06-26T06:31:57.721Z,98.76
2017-06-26T06:32:38.606Z,98.67
2017-06-26T06:33:19.494Z,98.81
2017-06-26T06:34:00.387Z,99
2017-06-26T06:34:41.277Z,99
2017-06-26T06:35:22.171Z,99.19
2017-06-26T06:36:03.062Z,99.29
2017-06-26T06:36:43.954Z,99.29
2017-06-26T06:37:24.832Z,98.81
2017-06-26T06:38:05.716Z,99.38
2017-06-26T06:38:46.614Z,99
2017-06-26T06:39:27.515Z,99.05
2017-06-26T06:40:55.649Z,98.86
2017-06-26T06:41:36.527Z,99.52
2017-06-26T06:42:17.430Z,99.1
2017-06-26T06:42:58.327Z,98.71
2017-06-26T06:43:39.214Z,99.1
2017-06-26T06:44:20.103Z,98.61
2017-06-26T06:45:00.992Z,99.57
2017-06-26T06:45:41.880Z,99.57
2017-06-26T06:46:22.768Z,99.99
2017-06-26T06:47:03.652Z,98.52
2017-06-26T06:47:44.541Z,99.71
2017-06-26T06:48:25.454Z,99.9
2017-06-26T06:49:06.382Z,99.71
2017-06-26T06:49:47.273Z,99.99
2017-06-26T06:50:28.172Z,99.33
2017-06-26T06:51:09.047Z,99.9
2017-06-26T06:51:49.929Z,99.52
2017-06-26T06:52:30.823Z,99.57
2017-06-26T06:53:11.763Z,99.85
2017-06-26T06:53:52.646Z,99.95
2017-06-26T06:54:33.541Z,99.52
2017-06-26T06:55:14.429Z,99.99
2017-06-26T06:55:55.320Z,99.99
2017-06-26T06:56:36.205Z,99.14
2017-06-26T06:57:17.093Z,99.48
2017-06-26T06:57:58.015Z,98.95
2017-06-26T06:58:38.898Z,99.99
2017-06-26T06:59:19.786Z,99.85
2017-06-26T07:00:00.667Z,98.61
2017-06-26T07:00:41.560Z,99.99
2017-06-26T07:01:22.448Z,98.9
2017-06-26T07:02:03.342Z,99.57
2017-06-26T07:02:44.246Z,99.76
2017-06-26T07:03:25.133Z,99.38
2017-06-26T07:04:06.035Z,99.38
2017-06-26T07:04:46.923Z,99.95
2017-06-26T07:05:27.813Z,99.95
2017-06-26T07:06:08.706Z,99.85
2017-06-26T07:06:49.601Z,99.76
2017-06-26T07:07:30.485Z,99.85
2017-06-26T07:08:11.372Z,99.48
2017-06-26T07:08:52.270Z,99.9
2017-06-26T07:09:33.170Z,99.9
2017-06-26T07:10:14.065Z,99.99
2017-06-26T07:10:54.953Z,99.52
2017-06-26T07:11:35.839Z,98.8
2017-06-26T07:12:16.733Z,98.85
2017-06-26T07:12:57.612Z,99.33
2017-06-26T07:13:38.498Z,99.99
2017-06-26T07:14:19.401Z,99.76
2017-06-26T07:15:00.275Z,99.66
2017-06-26T07:15:41.153Z,99.71
2017-06-26T07:16:22.042Z,99.85
2017-06-26T07:17:02.929Z,98.95
2017-06-26T07:17:43.817Z,99.76
2017-06-26T07:18:24.708Z,99.85
2017-06-26T07:19:05.588Z,99.95
2017-06-26T07:19:46.492Z,99.33
2017-06-26T07:20:27.381Z,99.99
2017-06-26T07:21:08.256Z,99.9
2017-06-26T07:21:49.167Z,99.62
2017-06-26T07:22:30.045Z,99.71
2017-06-26T07:23:10.940Z,99.81
2017-06-26T07:23:51.836Z,99.71
2017-06-26T07:24:32.725Z,99.62
2017-06-26T07:25:13.620Z,99.52
2017-06-26T07:25:54.503Z,99.04
2017-06-26T07:26:35.393Z,99.43
2017-06-26T07:27:16.282Z,99.81
2017-06-26T07:27:57.188Z,99.99
2017-06-26T07:28:38.068Z,99.43
2017-06-26T07:29:18.960Z,99.62
2017-06-26T07:29:59.844Z,99.81
2017-06-26T07:30:40.728Z,99.9
2017-06-26T07:31:21.622Z,99.99
2017-06-26T07:32:02.523Z,99.67
2017-06-26T07:32:43.407Z,99.96
2017-06-26T07:33:24.298Z,99.96
2017-06-26T07:34:05.192Z,98.95
2017-06-26T07:34:46.080Z,99.43
2017-06-26T07:35:26.973Z,98.9
2017-06-26T07:36:07.866Z,99.57
2017-06-26T07:36:48.753Z,99.76
2017-06-26T07:37:29.645Z,99.48
2017-06-26T07:38:10.539Z,99.99
2017-06-26T07:38:51.422Z,99.86
2017-06-26T07:39:32.309Z,99.99
2017-06-26T07:40:13.198Z,99.96
2017-06-26T07:40:54.090Z,99.76
2017-06-26T07:41:34.975Z,98.9
2017-06-26T07:42:15.921Z,99.99
2017-06-26T07:42:56.788Z,99.29
2017-06-26T07:43:37.675Z,99.67
2017-06-26T07:44:18.571Z,99.91
2017-06-26T07:44:59.459Z,99.91
2017-06-26T07:45:40.335Z,98.52
2017-06-26T07:46:21.225Z,99.99
2017-06-26T07:47:02.117Z,99.15
2017-06-26T07:47:43.004Z,99.52
2017-06-26T07:48:23.887Z,99.99
2017-06-26T07:49:04.779Z,99.91
2017-06-26T07:49:45.672Z,99.67
2017-06-26T07:50:26.565Z,99.99
2017-06-26T07:51:07.451Z,99.99
2017-06-26T07:51:48.343Z,99.15
2017-06-26T07:52:29.235Z,99.24
2017-06-26T07:53:10.133Z,99.15
2017-06-26T07:53:51.024Z,99.39
2017-06-26T07:54:31.913Z,99.29
2017-06-26T07:55:12.795Z,99.15
2017-06-26T07:55:53.686Z,99.48
2017-06-26T07:56:34.573Z,99.29
2017-06-26T07:57:15.477Z,99.43
2017-06-26T07:57:56.368Z,98.67
2017-06-26T07:58:37.267Z,99.01
2017-06-26T07:59:18.177Z,98.91
2017-06-26T07:59:59.093Z,98.62
2017-06-26T08:00:39.982Z,98.81
2017-06-26T08:01:20.884Z,99.63
2017-06-26T08:02:01.784Z,97.52
2017-06-26T08:02:42.674Z,97.81
2017-06-26T08:03:23.575Z,99.05
2017-06-26T08:04:04.466Z,97.42
2017-06-26T08:04:45.361Z,97.76
2017-06-26T08:05:26.287Z,97.81
2017-06-26T08:06:07.182Z,97.61
2017-06-26T08:06:48.084Z,97.95
2017-06-26T08:07:28.981Z,98.1
2017-06-26T08:08:09.920Z,97.95
2017-06-26T08:08:50.815Z,97.76
2017-06-26T08:09:31.711Z,98.19
2017-06-26T08:10:12.604Z,98
2017-06-26T08:10:53.497Z,97.61
2017-06-26T08:11:34.392Z,96.32
2017-06-26T08:12:15.289Z,95.75
2017-06-26T08:12:56.184Z,96.37
2017-06-26T08:13:37.080Z,95.17
2017-06-26T08:14:17.972Z,95.36
2017-06-26T08:14:58.864Z,94.31
2017-06-26T08:15:39.775Z,95.17
2017-06-26T08:16:20.671Z,95.46
2017-06-26T08:17:01.585Z,95.41
2017-06-26T08:17:42.488Z,92.14
2017-06-26T08:18:23.387Z,91.66
2017-06-26T08:19:04.306Z,93.39
2017-06-26T08:19:45.203Z,92.33
2017-06-26T08:20:26.097Z,93.39
2017-06-26T08:21:06.990Z,92.39
2017-06-26T08:21:47.889Z,91.47
2017-06-26T08:22:28.783Z,90.8
2017-06-26T08:23:09.673Z,91.42
2017-06-26T08:23:50.577Z,90.81
2017-06-26T08:24:31.469Z,91.05
2017-06-26T08:25:12.366Z,90.71
2017-06-26T08:25:53.264Z,90.08
2017-06-26T08:26:34.155Z,91
2017-06-26T08:27:15.056Z,91.77
2017-06-26T08:27:55.956Z,91.77
2017-06-26T08:28:36.860Z,91.77
2017-06-26T08:29:17.757Z,93.21
2017-06-26T08:29:58.652Z,91.19
2017-06-26T08:30:39.552Z,90.47
2017-06-26T08:31:20.450Z,90.28
2017-06-26T08:32:01.354Z,89.46
2017-06-26T08:32:42.243Z,87.73
2017-06-26T08:33:23.141Z,88.31
2017-06-26T08:34:04.050Z,88.02
2017-06-26T08:34:44.928Z,88.69
2017-06-26T08:35:25.812Z,87.49
2017-06-26T08:36:06.706Z,87.58
2017-06-26T08:36:47.609Z,87.39
2017-06-26T08:37:28.486Z,87.54
2017-06-26T08:38:09.382Z,88.98
2017-06-26T08:38:50.293Z,87.88
2017-06-26T08:39:31.166Z,86.87
2017-06-26T08:40:12.072Z,87.01
2017-06-26T08:40:52.954Z,87.3
2017-06-26T08:41:33.843Z,87.35
2017-06-26T08:42:14.741Z,88.4
2017-06-26T08:42:55.643Z,87.68
2017-06-26T08:43:36.537Z,87.59
2017-06-26T08:44:17.470Z,87.73
2017-06-26T08:44:58.366Z,87.01
2017-06-26T08:45:39.270Z,85.75
2017-06-26T08:46:20.165Z,86.91
2017-06-26T08:47:01.070Z,86.19
2017-06-26T08:47:41.972Z,87.54
2017-06-26T08:48:22.869Z,87.63
2017-06-26T08:49:03.774Z,87.63
2017-06-26T08:49:44.680Z,87.68
2017-06-26T08:50:25.584Z,87.72
2017-06-26T08:51:06.480Z,85.51
2017-06-26T08:51:47.383Z,87.15